createdAt,value
2023-01-19T00:01:31.621Z,98775.75
2023-01-19T00:03:59.366Z,98776.59
2023-01-19T00:06:26.987Z,98780.00
2023-01-19T00:08:54.458Z,98778.75
2023-01-19T00:11:21.940Z,98779.03
2023-01-19T00:13:50.940Z,98778.19
2023-01-19T00:16:23.652Z,98785.31
2023-01-19T00:18:52.602Z,98776.50
2023-01-19T00:21:21.567Z,98766.31
2023-01-19T00:23:51.088Z,98771.50
2023-01-19T00:26:19.294Z,98773.31
2023-01-19T00:28:46.949Z,98764.56
2023-01-19T00:31:14.480Z,98763.75
2023-01-19T00:33:43.334Z,98765.41
2023-01-19T00:36:11.245Z,98771.44
2023-01-19T00:38:39.034Z,98767.09
2023-01-19T00:41:06.953Z,98763.59
2023-01-19T00:43:34.406Z,98762.84
2023-01-19T00:46:01.919Z,98755.16
2023-01-19T00:48:30.719Z,98756.00
2023-01-19T00:51:00.075Z,98741.16
2023-01-19T00:53:29.106Z,98749.06
2023-01-19T00:55:56.642Z,98740.34
2023-01-19T00:58:24.113Z,98753.47
2023-01-19T01:00:54.579Z,98738.66
2023-01-19T01:03:28.088Z,98742.16
2023-01-19T01:05:55.813Z,98738.66
2023-01-19T01:08:25.112Z,98741.25
2023-01-19T01:10:52.941Z,98736.03
2023-01-19T01:13:22.441Z,98728.16
2023-01-19T01:15:52.665Z,98737.78
2023-01-19T01:18:20.924Z,98736.06
2023-01-19T01:20:48.701Z,98741.28
2023-01-19T01:23:16.477Z,98749.16
2023-01-19T01:25:46.620Z,98754.41
2023-01-19T01:28:14.088Z,98755.28
2023-01-19T01:30:43.296Z,98754.41
2023-01-19T01:33:11.696Z,98760.53
2023-01-19T01:35:39.700Z,98762.31
2023-01-19T01:38:07.820Z,98767.53
2023-01-19T01:40:35.433Z,98765.78
2023-01-19T01:43:04.435Z,98764.00
2023-01-19T01:45:34.301Z,98772.78
2023-01-19T01:48:04.825Z,98774.53
2023-01-19T01:50:34.155Z,98777.16
2023-01-19T01:53:06.431Z,98778.91
2023-01-19T01:55:36.297Z,98774.53
2023-01-19T01:58:06.113Z,98769.28
2023-01-19T02:00:53.752Z,98772.81
2023-01-19T02:03:21.257Z,98764.91
2023-01-19T02:05:48.781Z,98767.56
2023-01-19T02:08:37.553Z,98765.81
2023-01-19T02:11:23.451Z,98770.19
2023-01-19T02:13:53.992Z,98772.81
2023-01-19T02:16:21.559Z,98784.16
2023-01-19T02:18:49.056Z,98780.66
2023-01-19T02:21:21.093Z,98778.91
2023-01-19T02:23:51.200Z,98779.78
2023-01-19T02:26:20.805Z,98782.41
2023-01-19T02:28:51.271Z,98770.16
2023-01-19T02:31:19.271Z,98769.31
2023-01-19T02:33:46.865Z,98784.19
2023-01-19T02:36:15.971Z,98771.91
2023-01-19T02:38:45.827Z,98771.03
2023-01-19T02:41:18.139Z,98769.31
2023-01-19T02:43:46.479Z,98777.19
2023-01-19T02:46:15.574Z,98764.94
2023-01-19T02:48:43.339Z,98767.56
2023-01-19T02:51:13.488Z,98765.81
2023-01-19T02:53:54.279Z,98758.81
2023-01-19T02:56:36.983Z,98767.56
2023-01-19T02:59:07.761Z,98760.56
2023-01-19T03:01:44.837Z,98771.06
2023-01-19T03:04:15.932Z,98763.19
2023-01-19T03:06:47.658Z,98764.97
2023-01-19T03:09:22.380Z,98767.56
2023-01-19T03:11:55.377Z,98765.81
2023-01-19T03:14:24.707Z,98777.19
2023-01-19T03:16:55.201Z,98766.69
2023-01-19T03:19:24.908Z,98764.94
2023-01-19T03:21:56.561Z,98767.56
2023-01-19T03:24:25.831Z,98767.56
2023-01-19T03:26:58.719Z,98768.44
2023-01-19T03:29:28.564Z,98769.31
2023-01-19T03:31:57.575Z,98771.06
2023-01-19T03:34:25.191Z,98772.81
2023-01-19T03:36:54.063Z,98764.06
2023-01-19T03:39:24.093Z,98763.19
2023-01-19T03:41:56.267Z,98758.81
2023-01-19T03:44:24.854Z,98757.94
2023-01-19T03:46:52.755Z,98750.94
2023-01-19T03:49:20.568Z,98750.06
2023-01-19T03:51:48.202Z,98743.06
2023-01-19T03:54:15.699Z,98746.56
2023-01-19T03:56:43.702Z,98745.69
2023-01-19T03:59:12.548Z,98744.81
2023-01-19T04:01:40.192Z,98741.34
2023-01-19T04:04:07.741Z,98750.94
2023-01-19T04:06:35.223Z,98751.81
2023-01-19T04:09:02.780Z,98751.81
2023-01-19T04:11:30.264Z,98749.19
2023-01-19T04:13:58.555Z,98757.06
2023-01-19T04:16:27.381Z,98753.56
2023-01-19T04:18:54.870Z,98759.69
2023-01-19T04:21:22.432Z,98757.94
2023-01-19T04:23:50.607Z,98766.69
2023-01-19T04:26:18.283Z,98766.69
2023-01-19T04:28:46.009Z,98771.94
2023-01-19T04:31:14.336Z,98778.94
2023-01-19T04:33:43.203Z,98767.59
2023-01-19T04:36:10.802Z,98771.94
2023-01-19T04:38:38.462Z,98766.69
2023-01-19T04:41:06.221Z,98771.94
2023-01-19T04:43:33.784Z,98769.31
2023-01-19T04:46:01.267Z,98764.94
2023-01-19T04:48:28.850Z,98763.19
2023-01-19T04:50:57.663Z,98768.44
2023-01-19T04:53:25.211Z,98768.44
2023-01-19T04:55:54.526Z,98771.06
2023-01-19T04:58:22.121Z,98769.28
2023-01-19T05:00:51.128Z,98770.19
2023-01-19T05:03:19.271Z,98767.56
2023-01-19T05:05:46.802Z,98763.19
2023-01-19T05:08:15.674Z,98762.31
2023-01-19T05:10:43.144Z,98758.81
2023-01-19T05:13:10.629Z,98761.44
2023-01-19T05:15:38.106Z,98764.03
2023-01-19T05:18:05.618Z,98770.16
2023-01-19T05:20:33.093Z,98769.31
2023-01-19T05:23:01.080Z,98771.94
2023-01-19T05:25:30.137Z,98773.66
2023-01-19T05:27:57.605Z,98770.19
2023-01-19T05:30:25.085Z,98773.69
2023-01-19T05:32:52.609Z,98771.94
2023-01-19T05:35:27.824Z,98774.56
2023-01-19T05:37:59.020Z,98764.94
2023-01-19T05:40:26.489Z,98769.28
2023-01-19T05:42:55.275Z,98771.03
2023-01-19T05:45:22.828Z,98771.94
2023-01-19T05:47:50.928Z,98765.81
2023-01-19T05:50:18.410Z,98764.94
2023-01-19T05:52:45.893Z,98773.69
2023-01-19T05:55:15.514Z,98771.06
2023-01-19T05:57:43.331Z,98777.19
2023-01-19T06:00:13.716Z,98777.19
2023-01-19T06:02:41.263Z,98778.94
2023-01-19T06:05:09.558Z,98785.91
2023-01-19T06:07:37.034Z,98779.78
2023-01-19T06:10:04.889Z,98787.69
2023-01-19T06:12:33.127Z,98789.44
2023-01-19T06:15:00.613Z,98792.94
2023-01-19T06:17:29.442Z,98792.06
2023-01-19T06:19:56.940Z,98788.59
2023-01-19T06:22:24.565Z,98792.06
2023-01-19T06:24:52.137Z,98780.69
2023-01-19T06:27:19.620Z,98792.06
2023-01-19T06:29:47.108Z,98787.69
2023-01-19T06:32:14.568Z,98790.31
2023-01-19T06:34:43.818Z,98803.47
2023-01-19T06:37:12.171Z,98806.94
2023-01-19T06:39:41.087Z,98808.72
2023-01-19T06:42:09.046Z,98806.97
2023-01-19T06:44:36.555Z,98806.06
2023-01-19T06:47:15.670Z,98806.97
2023-01-19T06:49:45.017Z,98808.72
2023-01-19T06:52:14.108Z,98817.44
2023-01-19T06:54:41.575Z,98807.81
2023-01-19T06:57:09.060Z,98811.31
2023-01-19T06:59:36.524Z,98814.84
2023-01-19T07:02:26.279Z,98812.22
2023-01-19T07:04:52.831Z,98824.44
2023-01-19T07:07:20.332Z,98824.47
2023-01-19T07:09:48.106Z,98823.56
2023-01-19T07:12:15.667Z,98839.34
2023-01-19T07:14:43.235Z,98836.72
2023-01-19T07:17:10.907Z,98846.31
2023-01-19T07:19:38.409Z,98846.34
2023-01-19T07:22:07.269Z,98845.44
2023-01-19T07:24:35.508Z,98858.56
2023-01-19T07:27:03.031Z,98866.44
2023-01-19T07:29:30.552Z,98869.06
2023-01-19T07:31:58.078Z,98874.31
2023-01-19T07:34:25.580Z,98877.81
2023-01-19T07:36:53.106Z,98875.97
2023-01-19T07:39:21.906Z,98876.84
2023-01-19T07:41:49.585Z,98875.13
2023-01-19T07:44:17.285Z,98873.41
2023-01-19T07:46:44.965Z,98876.97
2023-01-19T07:49:12.644Z,98882.22
2023-01-19T07:51:40.187Z,98881.31
2023-01-19T07:54:08.422Z,98889.16
2023-01-19T07:56:37.326Z,98880.44
2023-01-19T07:59:04.845Z,98892.66
2023-01-19T08:01:32.439Z,98885.66
2023-01-19T08:03:59.959Z,98885.69
2023-01-19T08:06:32.611Z,98889.19
2023-01-19T08:09:00.205Z,98890.94
2023-01-19T08:11:27.723Z,98888.34
2023-01-19T08:13:56.547Z,98887.47
2023-01-19T08:16:24.215Z,98889.22
2023-01-19T08:18:51.703Z,98887.50
2023-01-19T08:21:19.234Z,98896.22
2023-01-19T08:23:53.256Z,98897.13
2023-01-19T08:26:23.870Z,98895.34
2023-01-19T08:28:51.446Z,98896.22
2023-01-19T08:31:23.024Z,98893.66
2023-01-19T08:33:51.860Z,98889.25
2023-01-19T08:36:19.388Z,98888.38
2023-01-19T08:38:47.241Z,98889.25
2023-01-19T08:41:16.467Z,98890.13
2023-01-19T08:43:44.583Z,98891.88
2023-01-19T08:46:12.331Z,98886.63
2023-01-19T08:48:41.157Z,98884.88
2023-01-19T08:51:08.921Z,98883.94
2023-01-19T08:53:36.388Z,98889.16
2023-01-19T08:56:03.903Z,98887.41
2023-01-19T08:58:31.423Z,98882.13
2023-01-19T09:01:03.014Z,98884.69
2023-01-19T09:03:31.307Z,98887.31
2023-01-19T09:06:00.098Z,98881.25
2023-01-19T09:08:27.920Z,98882.84
2023-01-19T09:10:55.506Z,98884.66
2023-01-19T09:13:22.987Z,98873.31
2023-01-19T09:15:50.587Z,98879.38
2023-01-19T09:18:20.064Z,98867.06
2023-01-19T09:20:49.297Z,98874.88
2023-01-19T09:23:20.386Z,98872.28
2023-01-19T09:25:48.489Z,98876.69
2023-01-19T09:28:17.595Z,98882.91
2023-01-19T09:30:45.532Z,98878.53
2023-01-19T09:33:16.319Z,98878.28
2023-01-19T09:35:45.708Z,98877.38
2023-01-19T09:38:17.479Z,98878.28
2023-01-19T09:40:49.570Z,98869.56
2023-01-19T09:43:22.649Z,98874.66
2023-01-19T09:45:53.481Z,98871.94
2023-01-19T09:48:30.282Z,98872.78
2023-01-19T09:51:01.755Z,98869.28
2023-01-19T09:53:41.954Z,98871.84
2023-01-19T09:56:13.746Z,98862.13
2023-01-19T09:58:41.795Z,98854.28
2023-01-19T10:01:21.078Z,98875.22
2023-01-19T10:03:51.016Z,98877.81
2023-01-19T10:06:18.897Z,98869.94
2023-01-19T10:08:53.112Z,98878.69
2023-01-19T10:11:38.102Z,98879.50
2023-01-19T10:14:14.734Z,98882.94
2023-01-19T10:16:50.160Z,98888.19
2023-01-19T10:19:23.402Z,98882.91
2023-01-19T10:21:51.685Z,98882.13
2023-01-19T10:24:22.374Z,98877.56
2023-01-19T10:26:52.849Z,98878.56
2023-01-19T10:29:23.951Z,98886.41
2023-01-19T10:31:53.473Z,98882.84
2023-01-19T10:34:23.723Z,98882.78
2023-01-19T10:36:58.568Z,98880.19
2023-01-19T10:39:26.106Z,98887.31
2023-01-19T10:41:55.003Z,98880.25
2023-01-19T10:44:26.889Z,98879.09
2023-01-19T10:46:55.893Z,98881.78
2023-01-19T10:49:26.722Z,98888.78
2023-01-19T10:51:55.359Z,98888.78
2023-01-19T10:54:23.246Z,98879.19
2023-01-19T10:56:57.242Z,98873.03
2023-01-19T10:59:35.792Z,98876.69
2023-01-19T11:02:20.250Z,98876.53
2023-01-19T11:04:50.213Z,98879.06
2023-01-19T11:07:21.211Z,98882.66
2023-01-19T11:09:49.411Z,98886.91
2023-01-19T11:12:20.537Z,98882.41
2023-01-19T11:14:48.868Z,98876.34
2023-01-19T11:17:25.156Z,98875.47
2023-01-19T11:19:57.732Z,98870.41
2023-01-19T11:22:28.661Z,98874.59
2023-01-19T11:25:00.516Z,98871.09
2023-01-19T11:27:32.188Z,98878.97
2023-01-19T11:30:10.336Z,98879.88
2023-01-19T11:32:38.413Z,98882.50
2023-01-19T11:35:31.469Z,98882.50
2023-01-19T11:38:07.427Z,98883.44
2023-01-19T11:40:36.347Z,98876.44
2023-01-19T11:43:05.792Z,98886.91
2023-01-19T11:45:35.073Z,98886.94
2023-01-19T11:48:05.620Z,98890.56
2023-01-19T11:50:36.190Z,98890.59
2023-01-19T11:53:07.441Z,98892.44
2023-01-19T11:55:38.101Z,98888.88
2023-01-19T11:58:07.039Z,98893.22
2023-01-19T12:00:37.641Z,98893.22
2023-01-19T12:03:11.867Z,98893.25
2023-01-19T12:05:42.367Z,98904.47
2023-01-19T12:08:14.424Z,98897.44
2023-01-19T12:10:45.271Z,98893.19
2023-01-19T12:13:20.666Z,98889.78
2023-01-19T12:15:49.028Z,98892.28
2023-01-19T12:18:20.529Z,98884.22
2023-01-19T12:20:50.302Z,98889.28
2023-01-19T12:23:26.044Z,98889.34
2023-01-19T12:26:02.206Z,98896.25
2023-01-19T12:28:33.362Z,98894.00
2023-01-19T12:31:01.968Z,98894.97
2023-01-19T12:33:37.490Z,98890.97
2023-01-19T12:36:07.783Z,98896.22
2023-01-19T12:38:45.921Z,98891.81
2023-01-19T12:41:21.488Z,98891.84
2023-01-19T12:44:21.622Z,98895.25
2023-01-19T12:46:51.063Z,98891.13
2023-01-19T12:49:24.808Z,98886.56
2023-01-19T12:51:55.086Z,98884.66
2023-01-19T12:54:27.581Z,98885.63
2023-01-19T12:56:59.234Z,98894.28
2023-01-19T12:59:29.339Z,98894.28
2023-01-19T13:02:33.779Z,98890.91
2023-01-19T13:05:15.721Z,98893.69
2023-01-19T13:08:16.012Z,98896.03
2023-01-19T13:11:14.168Z,98900.56
2023-01-19T13:13:43.829Z,98900.22
2023-01-19T13:16:55.961Z,98899.66
2023-01-19T13:19:32.415Z,98911.94
2023-01-19T13:21:59.984Z,98912.72
2023-01-19T13:25:06.570Z,98914.53
2023-01-19T13:27:35.659Z,98912.66
2023-01-19T13:30:03.261Z,98907.38
2023-01-19T13:32:31.215Z,98913.63
2023-01-19T13:35:02.076Z,98914.44
2023-01-19T13:37:36.481Z,98921.69
2023-01-19T13:40:04.759Z,98919.00
2023-01-19T13:42:35.321Z,98926.00
2023-01-19T13:45:05.428Z,98925.94
2023-01-19T13:47:45.361Z,98927.44
2023-01-19T13:50:22.038Z,98929.28
2023-01-19T13:52:51.355Z,98935.38
2023-01-19T13:55:20.658Z,98946.13
2023-01-19T13:57:49.595Z,98942.72
2023-01-19T14:00:19.337Z,98947.72
2023-01-19T14:02:59.018Z,98950.41
2023-01-19T14:05:30.172Z,98953.00
2023-01-19T14:08:06.096Z,98958.16
2023-01-19T14:10:34.307Z,98959.16
2023-01-19T14:13:03.847Z,98960.53
2023-01-19T14:15:34.235Z,98964.50
2023-01-19T14:18:30.040Z,98967.94
2023-01-19T14:21:04.027Z,98963.59
2023-01-19T14:23:44.550Z,98969.84
2023-01-19T14:26:41.716Z,98978.78
2023-01-19T14:29:20.433Z,98979.47
2023-01-19T14:31:49.917Z,98984.91
2023-01-19T14:34:31.624Z,98983.81
2023-01-19T14:37:01.307Z,98989.06
2023-01-19T14:39:30.589Z,98990.91
2023-01-19T14:42:00.042Z,98994.41
2023-01-19T14:44:30.015Z,98998.56
2023-01-19T14:46:59.449Z,99007.72
2023-01-19T14:49:33.569Z,99004.13
2023-01-19T14:52:04.655Z,99012.19
2023-01-19T14:54:36.126Z,99011.44
2023-01-19T14:57:03.886Z,99012.66
2023-01-19T14:59:31.493Z,99012.56
2023-01-19T15:02:00.846Z,99015.75
2023-01-19T15:04:28.613Z,99016.56
2023-01-19T15:06:56.512Z,99026.38
2023-01-19T15:09:25.437Z,99027.25
2023-01-19T15:11:53.771Z,99033.22
2023-01-19T15:14:21.975Z,99035.94
2023-01-19T15:16:50.087Z,99040.22
2023-01-19T15:19:18.618Z,99034.31
2023-01-19T15:21:46.943Z,99040.38
2023-01-19T15:24:17.582Z,99039.38
2023-01-19T15:26:46.705Z,99047.66
2023-01-19T15:29:24.828Z,99047.78
2023-01-19T15:31:53.073Z,99059.72
2023-01-19T15:34:20.593Z,99059.13
2023-01-19T15:36:48.104Z,99061.63
2023-01-19T15:39:15.571Z,99066.56
2023-01-19T15:41:43.067Z,99065.38
2023-01-19T15:44:11.916Z,99072.72
2023-01-19T15:46:39.715Z,99073.22
2023-01-19T15:49:07.212Z,99086.75
2023-01-19T15:51:34.698Z,99084.69
2023-01-19T15:54:02.159Z,99093.44
2023-01-19T15:56:31.471Z,99100.06
2023-01-19T15:58:59.760Z,99105.66
2023-01-19T16:01:31.630Z,99108.25
2023-01-19T16:04:01.153Z,99116.19
2023-01-19T16:06:28.762Z,99119.47
2023-01-19T16:09:01.036Z,99116.84
2023-01-19T16:11:28.986Z,99121.38
2023-01-19T16:13:56.533Z,99123.84
2023-01-19T16:16:25.831Z,99113.16
2023-01-19T16:18:54.710Z,99118.25
2023-01-19T16:21:22.533Z,99125.41
2023-01-19T16:23:50.081Z,99129.13
2023-01-19T16:26:27.630Z,99133.31
2023-01-19T16:28:57.653Z,99125.41
2023-01-19T16:31:25.873Z,99130.09
2023-01-19T16:33:54.676Z,99131.59
2023-01-19T16:36:24.834Z,99127.06
2023-01-19T16:38:52.390Z,99134.38
2023-01-19T16:41:20.099Z,99130.41
2023-01-19T16:43:51.911Z,99135.03
2023-01-19T16:46:21.922Z,99138.66
2023-01-19T16:48:49.585Z,99132.31
2023-01-19T16:51:18.744Z,99145.50
2023-01-19T16:53:46.407Z,99152.03
2023-01-19T16:56:15.202Z,99157.34
2023-01-19T16:58:43.081Z,99150.88
2023-01-19T17:01:13.451Z,99157.31
2023-01-19T17:03:41.594Z,99156.28
2023-01-19T17:06:10.558Z,99163.00
2023-01-19T17:08:40.564Z,99164.28
2023-01-19T17:11:12.855Z,99161.72
2023-01-19T17:13:40.760Z,99161.59
2023-01-19T17:16:08.992Z,99165.31
2023-01-19T17:18:37.841Z,99162.63
2023-01-19T17:21:07.573Z,99169.50
2023-01-19T17:23:36.140Z,99172.19
2023-01-19T17:26:05.678Z,99175.75
2023-01-19T17:28:33.193Z,99181.13
2023-01-19T17:31:06.115Z,99170.34
2023-01-19T17:33:33.970Z,99178.25
2023-01-19T17:36:04.106Z,99184.63
2023-01-19T17:38:31.589Z,99185.56
2023-01-19T17:40:59.286Z,99190.81
2023-01-19T17:43:28.172Z,99197.84
2023-01-19T17:45:55.683Z,99196.06
2023-01-19T17:48:23.459Z,99201.38
2023-01-19T17:50:51.163Z,99200.50
2023-01-19T17:53:18.788Z,99202.25
2023-01-19T17:55:46.281Z,99202.25
2023-01-19T17:58:13.800Z,99206.63
2023-01-19T18:00:42.625Z,99212.72
2023-01-19T18:03:10.169Z,99219.81
2023-01-19T18:05:37.632Z,99219.78
2023-01-19T18:08:05.483Z,99217.16
2023-01-19T18:10:33.290Z,99221.56
2023-01-19T18:13:00.801Z,99214.56
2023-01-19T18:15:28.344Z,99218.06
2023-01-19T18:17:57.153Z,99217.19
2023-01-19T18:20:24.648Z,99214.53
2023-01-19T18:22:52.383Z,99213.66
2023-01-19T18:25:19.873Z,99209.28
2023-01-19T18:27:47.355Z,99222.44
2023-01-19T18:30:16.011Z,99223.34
2023-01-19T18:32:43.479Z,99230.28
2023-01-19T18:35:12.262Z,99234.75
2023-01-19T18:37:39.751Z,99238.19
2023-01-19T18:40:08.336Z,99236.44
2023-01-19T18:42:36.121Z,99225.94
2023-01-19T18:45:03.774Z,99234.72
2023-01-19T18:47:33.758Z,99231.19
2023-01-19T18:50:01.221Z,99232.97
2023-01-19T18:52:32.214Z,99234.75
2023-01-19T18:54:59.721Z,99235.59
2023-01-19T18:57:27.225Z,99248.75
2023-01-19T18:59:54.713Z,99248.66
2023-01-19T19:02:22.223Z,99247.88
2023-01-19T19:04:49.696Z,99255.66
2023-01-19T19:07:17.181Z,99253.84
2023-01-19T19:09:46.266Z,99261.72
2023-01-19T19:12:13.772Z,99256.63
2023-01-19T19:14:41.274Z,99264.44
2023-01-19T19:17:08.760Z,99261.75
2023-01-19T19:19:36.327Z,99266.78
2023-01-19T19:22:03.864Z,99260.69
2023-01-19T19:24:31.611Z,99275.56
2023-01-19T19:27:00.418Z,99272.34
2023-01-19T19:29:28.375Z,99273.22
2023-01-19T19:31:56.839Z,99280.25
2023-01-19T19:34:25.098Z,99269.75
2023-01-19T19:36:52.588Z,99278.47
2023-01-19T19:39:20.056Z,99274.06
2023-01-19T19:41:47.557Z,99282.53
2023-01-19T19:44:16.557Z,99288.88
2023-01-19T19:46:44.319Z,99296.63
2023-01-19T19:49:11.865Z,99289.06
2023-01-19T19:51:39.410Z,99288.91
2023-01-19T19:54:06.900Z,99305.22
2023-01-19T19:56:34.799Z,99299.25
2023-01-19T19:59:02.315Z,99306.34
2023-01-19T20:01:33.489Z,99306.06
2023-01-19T20:04:06.261Z,99312.94
2023-01-19T20:06:38.506Z,99304.53
2023-01-19T20:09:07.310Z,99315.78
2023-01-19T20:11:34.838Z,99326.06
2023-01-19T20:14:05.913Z,99322.72
2023-01-19T20:16:35.044Z,99331.28
2023-01-19T20:19:02.861Z,99329.47
2023-01-19T20:21:32.078Z,99334.22
2023-01-19T20:24:01.486Z,99341.75
2023-01-19T20:26:30.632Z,99347.88
2023-01-19T20:29:00.555Z,99344.25
2023-01-19T20:31:30.150Z,99358.13
2023-01-19T20:34:00.715Z,99349.78
2023-01-19T20:36:28.997Z,99350.06
2023-01-19T20:38:57.121Z,99355.28
2023-01-19T20:41:25.461Z,99354.50
2023-01-19T20:43:53.042Z,99362.00
2023-01-19T20:46:20.612Z,99368.84
2023-01-19T20:48:52.836Z,99367.19
2023-01-19T20:51:22.993Z,99373.16
2023-01-19T20:53:50.542Z,99372.81
2023-01-19T20:56:18.033Z,99378.00
2023-01-19T20:58:45.568Z,99382.50
2023-01-19T21:01:14.846Z,99381.78
2023-01-19T21:03:42.814Z,99383.94
2023-01-19T21:06:12.114Z,99383.25
2023-01-19T21:08:41.015Z,99385.19
2023-01-19T21:11:09.005Z,99396.34
2023-01-19T21:13:36.711Z,99389.25
2023-01-19T21:16:04.968Z,99400.38
2023-01-19T21:18:32.506Z,99405.91
2023-01-19T21:20:59.985Z,99403.94
2023-01-19T21:23:28.079Z,99411.06
2023-01-19T21:25:58.107Z,99413.28
2023-01-19T21:28:26.080Z,99417.63
2023-01-19T21:31:00.789Z,99421.22
2023-01-19T21:33:28.279Z,99423.06
2023-01-19T21:35:57.229Z,99427.53
2023-01-19T21:38:26.744Z,99428.47
2023-01-19T21:40:54.732Z,99433.38
2023-01-19T21:43:23.811Z,99434.88
2023-01-19T21:45:51.694Z,99431.34
2023-01-19T21:48:19.689Z,99442.22
2023-01-19T21:50:47.214Z,99439.38
2023-01-19T21:53:14.719Z,99435.25
2023-01-19T21:55:44.747Z,99441.13
2023-01-19T21:58:12.218Z,99452.50
2023-01-19T22:00:41.158Z,99447.25
2023-01-19T22:03:08.898Z,99452.22
2023-01-19T22:05:37.194Z,99453.59
2023-01-19T22:08:05.066Z,99459.06
2023-01-19T22:10:32.793Z,99459.41
2023-01-19T22:13:00.281Z,99463.91
2023-01-19T22:15:27.763Z,99466.50
2023-01-19T22:17:56.757Z,99463.38
2023-01-19T22:20:24.221Z,99469.91
2023-01-19T22:22:51.776Z,99466.59
2023-01-19T22:25:21.978Z,99467.47
2023-01-19T22:27:49.463Z,99482.44
2023-01-19T22:30:17.952Z,99483.22
2023-01-19T22:32:45.657Z,99487.53
2023-01-19T22:35:15.369Z,99498.78
2023-01-19T22:37:43.441Z,99497.84
2023-01-19T22:40:12.522Z,99498.53
2023-01-19T22:42:40.189Z,99503.66
2023-01-19T22:45:09.261Z,99504.41
2023-01-19T22:47:37.052Z,99504.75
2023-01-19T22:50:04.947Z,99498.91
2023-01-19T22:52:33.993Z,99497.28
2023-01-19T22:55:01.598Z,99507.16
2023-01-19T22:57:34.220Z,99512.75
2023-01-19T23:00:01.886Z,99511.94
2023-01-19T23:02:29.462Z,99514.38
2023-01-19T23:04:56.937Z,99518.75
2023-01-19T23:07:24.510Z,99520.50
2023-01-19T23:09:53.286Z,99522.44
2023-01-19T23:12:21.062Z,99520.69
2023-01-19T23:14:49.077Z,99519.94
2023-01-19T23:17:16.562Z,99525.63
2023-01-19T23:19:44.013Z,99523.38
2023-01-19T23:22:11.509Z,99529.13
2023-01-19T23:24:39.267Z,99529.13
2023-01-19T23:27:08.366Z,99538.66
2023-01-19T23:29:36.278Z,99543.75
2023-01-19T23:32:03.990Z,99540.19
2023-01-19T23:34:31.437Z,99542.81
2023-01-19T23:36:58.921Z,99541.72
2023-01-19T23:39:26.594Z,99545.50
2023-01-19T23:41:54.087Z,99544.78
2023-01-19T23:44:22.941Z,99540.81
2023-01-19T23:46:50.483Z,99549.69
2023-01-19T23:49:18.129Z,99545.78
2023-01-19T23:51:45.650Z,99544.59
2023-01-19T23:54:13.133Z,99552.25
2023-01-19T23:56:42.522Z,99552.19
2023-01-19T23:59:11.473Z,99551.47
